Time;durP1;ratioP1;P1;durP2;ratioP2;P2;SDS_P1;SDS_P2;PMS_P1;PMS_P2;Temp;Humidity;BMP_temperature;BMP_pressure;BME280_temperature;BME280_humidity;BME280_pressure;Samples;Min_cycle;Max_cycle;Signal;HPM_P1;HPM_P2
2023/09/08 00:02:03;;;;;;;11.75;6.68;;;;;;;20.56;56.99;100989.16;5012071;28;98383;-78
2023/09/08 00:04:28;;;;;;;9.20;6.60;;;;;;;20.51;57.23;100985.94;5011661;28;96790;-77
2023/09/08 00:06:54;;;;;;;13.48;6.22;;;;;;;20.50;57.21;100968.19;5011913;28;96874;-77
2023/09/08 00:09:19;;;;;;;10.52;6.50;;;;;;;20.51;57.20;100979.75;5012304;28;98595;-78
2023/09/08 00:11:45;;;;;;;10.85;6.45;;;;;;;20.44;57.49;100973.09;5010710;28;98387;-78
2023/09/08 00:14:10;;;;;;;9.05;5.75;;;;;;;20.44;57.52;100973.09;5011982;28;97211;-78
2023/09/08 00:16:37;;;;;;;11.15;6.70;;;;;;;20.44;57.46;100978.41;5012276;28;97327;-77
2023/09/08 00:19:02;;;;;;;15.60;7.15;;;;;;;20.42;57.41;100969.66;5011997;28;98768;-78
2023/09/08 00:21:28;;;;;;;13.90;6.88;;;;;;;20.39;57.59;100975.19;5011986;28;98263;-78
2023/09/08 00:23:53;;;;;;;10.15;6.78;;;;;;;20.34;57.75;100981.69;5011066;28;96963;-78
2023/09/08 00:26:19;;;;;;;9.45;7.07;;;;;;;20.31;58.02;100979.22;5011480;28;96978;-77
2023/09/08 00:28:47;;;;;;;12.52;6.57;;;;;;;20.30;57.98;100976.63;5009668;28;99730;-77
2023/09/08 00:31:12;;;;;;;13.98;6.35;;;;;;;20.27;57.96;100976.84;5011326;28;98408;-78
2023/09/08 00:33:38;;;;;;;8.70;6.45;;;;;;;20.23;57.95;100967.34;5011671;28;96965;-78
2023/09/08 00:36:04;;;;;;;11.43;7.13;;;;;;;20.21;58.31;100979.91;5011827;28;96764;-78
2023/09/08 00:38:30;;;;;;;12.80;7.00;;;;;;;20.19;58.36;100974.69;5011481;28;98598;-77
2023/09/08 00:40:55;;;;;;;13.68;7.45;;;;;;;20.16;58.43;100977.53;5011043;28;98275;-78
2023/09/08 00:43:21;;;;;;;9.85;6.50;;;;;;;20.10;58.83;100976.13;5011330;28;97174;-78
2023/09/08 00:45:46;;;;;;;11.20;6.88;;;;;;;20.08;58.69;100971.84;5012264;28;97278;-77
2023/09/08 00:48:12;;;;;;;8.90;6.20;;;;;;;20.03;58.92;100966.78;5010394;28;96918;-78
2023/09/08 00:50:38;;;;;;;9.10;6.57;;;;;;;19.99;58.82;100956.44;5010126;28;98348;-77
2023/09/08 00:53:05;;;;;;;18.20;7.90;;;;;;;19.99;59.08;100961.78;5009472;28;96848;-78
2023/09/08 00:55:31;;;;;;;8.32;6.75;;;;;;;19.95;59.01;100958.41;5010090;28;96834;-78
2023/09/08 00:57:58;;;;;;;8.88;6.82;;;;;;;19.97;59.01;100966.34;5010633;28;98810;-78
2023/09/08 01:00:24;;;;;;;11.65;6.97;;;;;;;19.98;59.13;100968.03;4993722;28;98812;-78
2023/09/08 01:02:50;;;;;;;9.65;7.03;;;;;;;19.93;59.17;100975.47;5010324;28;96843;-77
2023/09/08 01:05:16;;;;;;;8.98;7.35;;;;;;;19.89;59.44;100967.66;5011557;28;97066;-77
2023/09/08 01:07:42;;;;;;;9.10;6.90;;;;;;;19.90;59.33;100976.53;5009753;28;98980;-78
2023/09/08 01:10:08;;;;;;;11.25;7.40;;;;;;;19.85;59.28;100966.16;5010134;28;100654;-77
2023/09/08 01:12:34;;;;;;;10.00;7.47;;;;;;;19.83;59.35;100962.72;5011206;28;96611;-78
2023/09/08 01:15:01;;;;;;;13.10;7.75;;;;;;;19.83;59.45;100967.19;5011518;28;96827;-78
2023/09/08 01:17:27;;;;;;;10.40;7.47;;;;;;;19.81;59.24;100959.31;5010226;28;98764;-77
2023/09/08 01:19:55;;;;;;;10.85;7.00;;;;;;;19.82;59.41;100960.16;5009219;28;100223;-78
2023/09/08 01:22:45;;;;;;;12.38;8.30;;;;;;;19.77;59.59;100967.56;5007775;28;97169;-77
2023/09/08 01:25:29;;;;;;;12.50;8.07;;;;;;;19.76;59.60;100968.53;5023630;28;96746;-78
2023/09/08 01:27:58;;;;;;;12.60;8.02;;;;;;;19.75;59.48;100965.03;5019062;28;98735;-77
2023/09/08 01:30:26;;;;;;;13.00;7.72;;;;;;;19.76;59.50;100958.72;5013974;28;98420;-77
2023/09/08 01:32:52;;;;;;;10.02;8.18;;;;;;;19.67;59.45;100954.84;5015451;28;97182;-77
2023/09/08 01:35:18;;;;;;;16.73;8.23;;;;;;;19.75;59.35;100969.47;5013792;28;96885;-77
2023/09/08 01:37:48;;;;;;;10.40;7.60;;;;;;;19.71;59.37;100962.63;5013088;28;98981;-77
2023/09/08 01:40:15;;;;;;;9.75;8.05;;;;;;;19.66;59.18;100957.56;5014059;28;98357;-77
2023/09/08 01:42:41;;;;;;;10.77;8.43;;;;;;;19.63;59.48;100955.06;5013671;28;97051;-78
2023/09/08 01:45:08;;;;;;;8.75;7.63;;;;;;;19.60;59.47;100952.59;5014708;28;97251;-78
2023/09/08 01:47:35;;;;;;;11.20;7.60;;;;;;;19.56;59.60;100951.09;5013828;28;100407;-78
2023/09/08 01:50:02;;;;;;;8.75;7.55;;;;;;;19.57;59.50;100956.31;5015726;28;97755;-78
2023/09/08 01:52:28;;;;;;;9.70;7.80;;;;;;;19.50;59.70;100952.31;5015433;28;97399;-77
2023/09/08 01:54:53;;;;;;;10.68;7.45;;;;;;;19.50;59.63;100949.66;5012467;28;98121;-78
2023/09/08 01:57:19;;;;;;;13.35;8.00;;;;;;;19.48;59.76;100945.38;5012437;28;99048;-78
2023/09/08 01:59:45;;;;;;;8.85;7.18;;;;;;;19.48;59.76;100956.03;5009923;28;99667;-78
2023/09/08 02:02:11;;;;;;;14.40;8.00;;;;;;;19.45;59.75;100959.72;5013768;28;97206;-78
2023/09/08 02:04:36;;;;;;;11.05;7.80;;;;;;;19.40;59.96;100968.00;5014346;28;97202;-77
2023/09/08 02:07:03;;;;;;;10.20;7.82;;;;;;;19.40;59.90;100967.13;5009607;28;98945;-77
2023/09/08 02:09:36;;;;;;;9.85;7.35;;;;;;;19.39;59.68;100960.09;5003329;28;100478;-78
2023/09/08 02:12:03;;;;;;;9.52;7.57;;;;;;;19.32;59.85;100958.78;5013018;28;97867;-77
2023/09/08 02:14:29;;;;;;;11.88;7.78;;;;;;;19.29;60.02;100958.97;5014310;28;96822;-78
2023/09/08 02:16:55;;;;;;;11.68;7.95;;;;;;;19.27;59.91;100953.72;5011697;28;100394;-78
2023/09/08 02:19:23;;;;;;;10.50;8.45;;;;;;;19.25;59.79;100954.75;5012037;28;99535;-78
2023/09/08 02:21:49;;;;;;;12.30;7.57;;;;;;;19.21;60.02;100943.44;5012200;28;97346;-77
2023/09/08 02:24:14;;;;;;;9.55;8.55;;;;;;;19.14;60.10;100948.28;5014298;28;97235;-78
2023/09/08 02:26:40;;;;;;;12.48;8.45;;;;;;;19.11;60.39;100944.94;5011596;28;100294;-78
2023/09/08 02:29:05;;;;;;;9.80;8.10;;;;;;;19.07;60.82;100946.94;5012943;28;98382;-78
2023/09/08 02:31:31;;;;;;;10.52;8.43;;;;;;;19.00;60.81;100946.44;5012829;28;96741;-78
2023/09/08 02:33:57;;;;;;;11.43;7.53;;;;;;;19.04;60.70;100952.44;5013012;28;96885;-78
2023/09/08 02:36:26;;;;;;;12.40;8.23;;;;;;;19.00;60.63;100956.22;5012177;28;98690;-78
2023/09/08 02:38:53;;;;;;;9.95;7.97;;;;;;;18.98;60.79;100944.81;4985725;28;100153;-78
2023/09/08 02:41:19;;;;;;;13.75;8.10;;;;;;;18.82;60.78;100926.25;5013485;28;96834;-77
2023/09/08 02:43:44;;;;;;;10.25;8.07;;;;;;;18.95;60.76;100953.84;5013316;28;97029;-78
2023/09/08 02:46:10;;;;;;;13.38;9.13;;;;;;;18.88;61.02;100941.84;5011553;28;100650;-78
2023/09/08 02:48:35;;;;;;;13.02;8.98;;;;;;;18.87;61.15;100940.13;5011962;28;100585;-78
2023/09/08 02:51:01;;;;;;;11.07;7.65;;;;;;;18.84;60.90;100932.31;5012784;28;97025;-77
2023/09/08 02:53:28;;;;;;;14.48;8.73;;;;;;;18.88;60.97;100946.28;5013052;28;96851;-77
2023/09/08 02:55:55;;;;;;;14.82;9.75;;;;;;;18.82;60.86;100939.56;4994702;28;100597;-78
2023/09/08 02:58:21;;;;;;;12.57;9.25;;;;;;;18.78;60.95;100935.34;5011090;28;98755;-77
2023/09/08 03:00:47;;;;;;;13.50;8.77;;;;;;;18.76;61.08;100931.91;5012645;28;97256;-77
2023/09/08 03:03:12;;;;;;;17.27;9.05;;;;;;;18.74;61.24;100931.16;5012677;28;97086;-77
2023/09/08 03:05:38;;;;;;;15.13;9.20;;;;;;;18.75;61.36;100928.41;5012698;28;98938;-78
2023/09/08 03:08:05;;;;;;;10.57;9.48;;;;;;;18.70;61.55;100927.81;5011049;28;100142;-78
2023/09/08 03:10:33;;;;;;;11.35;9.10;;;;;;;18.69;61.22;100928.72;5013552;28;97597;-77
2023/09/08 03:13:00;;;;;;;16.67;9.82;;;;;;;18.64;61.29;100919.31;5013080;28;97510;-78
2023/09/08 03:15:27;;;;;;;17.13;8.25;;;;;;;18.62;61.44;100924.72;5011836;28;97432;-78
2023/09/08 03:17:54;;;;;;;10.25;7.93;;;;;;;18.63;61.57;100929.09;5012347;28;98622;-78
2023/09/08 03:20:20;;;;;;;16.77;10.60;;;;;;;18.59;61.58;100924.03;5011755;28;96869;-78
2023/09/08 03:22:45;;;;;;;19.00;10.00;;;;;;;18.57;61.59;100929.44;5012015;28;96813;-78
2023/09/08 03:25:15;;;;;;;14.63;9.63;;;;;;;18.55;61.50;100923.34;5012469;28;97544;-78
2023/09/08 03:27:42;;;;;;;14.10;7.75;;;;;;;18.52;61.61;100927.03;5012056;28;98655;-78
2023/09/08 03:30:07;;;;;;;11.00;7.82;;;;;;;18.46;61.67;100927.41;5011129;28;98076;-77
2023/09/08 03:32:34;;;;;;;18.48;7.35;;;;;;;18.41;61.79;100929.47;5012837;28;96780;-78
2023/09/08 03:35:00;;;;;;;17.02;8.23;;;;;;;18.24;62.23;100933.09;5010739;28;100196;-78
2023/09/08 03:37:28;;;;;;;12.68;8.82;;;;;;;18.21;62.09;100932.38;5012176;28;98476;-77
2023/09/08 03:39:54;;;;;;;13.82;9.52;;;;;;;18.30;61.92;100942.53;5012548;28;96783;-78
2023/09/08 03:42:20;;;;;;;16.98;15.27;;;;;;;18.26;61.99;100925.03;5010338;28;96896;-78
2023/09/08 03:44:45;;;;;;;19.83;15.02;;;;;;;18.26;62.36;100930.34;5010703;28;98814;-77
2023/09/08 03:47:11;;;;;;;16.70;15.05;;;;;;;18.25;62.48;100931.28;5011617;28;98355;-77
2023/09/08 03:49:36;;;;;;;16.88;15.25;;;;;;;18.24;62.51;100929.59;5010974;28;96812;-77
2023/09/08 03:52:02;;;;;;;25.05;15.73;;;;;;;18.17;62.44;100929.06;5010325;28;96918;-78
2023/09/08 03:54:28;;;;;;;17.58;16.05;;;;;;;18.20;62.52;100930.69;5010490;28;99013;-77
2023/09/08 03:56:54;;;;;;;19.50;14.95;;;;;;;18.16;62.42;100935.31;5009988;28;97303;-77
2023/09/08 03:59:20;;;;;;;20.08;15.38;;;;;;;18.14;62.70;100933.69;5010516;28;96927;-78
2023/09/08 04:01:46;;;;;;;18.08;16.23;;;;;;;18.01;63.40;100931.72;5012052;28;96915;-77
2023/09/08 04:04:11;;;;;;;17.85;16.00;;;;;;;17.96;63.32;100919.63;5011279;28;98942;-77
2023/09/08 04:06:37;;;;;;;17.20;15.57;;;;;;;17.95;63.30;100929.41;5011589;28;98617;-78
2023/09/08 04:09:02;;;;;;;15.77;12.98;;;;;;;17.98;63.26;100920.41;5011683;28;96665;-78
2023/09/08 04:11:28;;;;;;;14.00;12.40;;;;;;;17.96;63.27;100920.50;5012405;28;96762;-79
2023/09/08 04:13:53;;;;;;;15.20;13.68;;;;;;;17.96;63.53;100925.78;5011231;28;98748;-78
2023/09/08 04:16:19;;;;;;;17.00;14.13;;;;;;;17.96;63.46;100931.13;5012186;28;98722;-78
2023/09/08 04:18:44;;;;;;;15.90;13.27;;;;;;;17.97;63.47;100926.66;5027294;28;97012;-78
2023/09/08 04:21:10;;;;;;;15.40;12.10;;;;;;;17.95;63.39;100932.06;4994178;28;96812;-79
2023/09/08 04:23:36;;;;;;;15.45;13.35;;;;;;;17.90;63.74;100915.50;5006753;28;100474;-79
2023/09/08 04:26:02;;;;;;;14.93;13.38;;;;;;;17.96;63.30;100920.50;5009183;28;100090;-78
2023/09/08 04:28:28;;;;;;;15.98;13.18;;;;;;;17.98;63.51;100921.28;5011027;28;97686;-78
2023/09/08 04:30:53;;;;;;;17.52;13.15;;;;;;;18.00;63.17;100919.38;5008978;28;97171;-77
2023/09/08 04:33:19;;;;;;;26.70;14.30;;;;;;;18.01;63.14;100915.78;5008434;28;100756;-77
2023/09/08 04:35:44;;;;;;;16.10;14.35;;;;;;;18.02;63.04;100922.78;5009433;28;100361;-77
2023/09/08 04:38:11;;;;;;;17.35;15.32;;;;;;;18.02;63.37;100922.78;5010757;28;97131;-78
2023/09/08 04:40:39;;;;;;;18.70;15.32;;;;;;;17.88;63.72;100898.81;5010365;28;97044;-78
2023/09/08 04:43:05;;;;;;;17.48;15.88;;;;;;;17.91;63.72;100914.56;5010969;28;98663;-78
2023/09/08 04:45:32;;;;;;;30.77;14.55;;;;;;;17.99;63.80;100911.50;5011367;28;97640;-77
2023/09/08 04:47:58;;;;;;;20.85;14.20;;;;;;;18.01;63.52;100912.28;5009822;28;97446;-78
2023/09/08 04:50:24;;;;;;;17.50;14.85;;;;;;;18.04;63.69;100922.72;5010857;28;96797;-77
2023/09/08 04:52:50;;;;;;;17.77;16.08;;;;;;;18.08;63.06;100918.94;5008868;28;100680;-79
2023/09/08 04:55:15;;;;;;;19.40;15.18;;;;;;;18.10;63.48;100911.75;5009875;28;100793;-77
2023/09/08 04:57:41;;;;;;;18.60;12.77;;;;;;;18.10;63.56;100925.03;5010945;28;96763;-77
2023/09/08 05:00:07;;;;;;;16.60;14.40;;;;;;;18.08;63.80;100917.13;5012860;28;96960;-77
2023/09/08 05:02:33;;;;;;;19.20;14.10;;;;;;;18.20;63.42;100922.72;5011959;28;100595;-77
2023/09/08 05:05:00;;;;;;;15.18;13.80;;;;;;;18.25;63.59;100924.16;5029074;28;100280;-77
2023/09/08 05:07:25;;;;;;;15.93;14.52;;;;;;;18.31;63.73;100913.19;5015422;28;97123;-77
2023/09/08 05:09:52;;;;;;;16.63;14.95;;;;;;;18.43;63.48;100914.28;5013871;28;97143;-77
2023/09/08 05:12:18;;;;;;;16.67;14.93;;;;;;;18.57;63.19;100920.63;5012291;28;97405;-77
2023/09/08 05:14:44;;;;;;;15.68;14.20;;;;;;;18.54;62.95;100916.34;5013754;28;100454;-77
2023/09/08 05:17:10;;;;;;;18.02;15.50;;;;;;;18.19;63.73;100921.88;5013152;28;97140;-77
2023/09/08 05:19:36;;;;;;;16.48;14.93;;;;;;;18.24;63.42;100914.50;5013587;28;97479;-77
2023/09/08 05:22:01;;;;;;;17.58;15.77;;;;;;;18.49;63.38;100918.41;4999836;28;100649;-77
2023/09/08 05:24:28;;;;;;;26.98;24.77;;;;;;;18.62;63.04;100921.22;4995458;28;99840;-77
2023/09/08 05:26:54;;;;;;;18.80;16.58;;;;;;;18.75;62.50;100920.44;5013577;28;97596;-77
2023/09/08 05:29:20;;;;;;;18.38;16.48;;;;;;;18.78;62.27;100916.72;5013210;28;96990;-76
2023/09/08 05:31:46;;;;;;;20.55;17.42;;;;;;;18.90;62.16;100931.97;5013518;28;98908;-77
2023/09/08 05:34:11;;;;;;;16.85;15.32;;;;;;;19.11;61.73;100923.66;5001319;28;99569;-77
2023/09/08 05:36:39;;;;;;;22.52;16.77;;;;;;;19.24;61.08;100929.94;5012525;28;97314;-77
2023/09/08 05:39:05;;;;;;;18.50;16.55;;;;;;;19.32;60.84;100921.50;5009526;28;97006;-77
2023/09/08 05:41:32;;;;;;;15.95;14.35;;;;;;;19.62;60.48;100926.75;5012344;28;100618;-77
2023/09/08 05:43:57;;;;;;;14.77;12.88;;;;;;;19.85;59.86;100925.34;5013179;28;98602;-77
2023/09/08 05:46:23;;;;;;;16.08;14.00;;;;;;;19.94;59.33;100921.22;5013060;28;96636;-77
2023/09/08 05:48:49;;;;;;;16.58;14.77;;;;;;;20.17;59.13;100927.75;5012031;28;97060;-76
2023/09/08 05:51:15;;;;;;;16.73;13.60;;;;;;;20.46;58.38;100924.03;5010096;28;98873;-77
2023/09/08 05:53:41;;;;;;;25.77;23.42;;;;;;;20.21;58.68;100918.59;5005967;28;99711;-76
2023/09/08 05:56:07;;;;;;;24.95;21.15;;;;;;;20.69;57.46;100922.53;5012838;28;96918;-76
2023/09/08 05:58:33;;;;;;;20.08;15.38;;;;;;;20.66;57.52;100922.75;5012414;28;96987;-76
2023/09/08 06:01:03;;;;;;;19.52;13.77;;;;;;;20.83;57.55;100931.41;5011802;28;99995;-76
2023/09/08 06:03:29;;;;;;;19.92;15.73;;;;;;;20.83;57.69;100926.97;5022805;28;100359;-76
2023/09/08 06:05:56;;;;;;;21.58;15.23;;;;;;;21.12;57.10;100926.78;5013783;28;97094;-76
2023/09/08 06:08:21;;;;;;;24.17;19.67;;;;;;;20.78;57.20;100926.41;5013750;28;97155;-76
2023/09/08 06:10:48;;;;;;;25.45;18.33;;;;;;;21.05;57.17;100922.81;4996884;28;99126;-76
2023/09/08 06:13:13;;;;;;;19.10;17.25;;;;;;;21.33;56.49;100919.97;5008937;28;100403;-76
2023/09/08 06:15:41;;;;;;;23.20;13.43;;;;;;;21.25;56.59;100917.81;5003820;28;97124;-76
2023/09/08 06:18:06;;;;;;;19.98;11.57;;;;;;;21.99;54.94;100917.13;5011824;28;96851;-73
2023/09/08 06:20:32;;;;;;;23.92;15.77;;;;;;;22.85;53.23;100908.94;5008737;28;98663;-73
2023/09/08 06:22:58;;;;;;;19.15;12.13;;;;;;;24.25;50.00;100914.03;5011261;28;100443;-73
2023/09/08 06:25:24;;;;;;;19.77;12.23;;;;;;;24.99;47.37;100909.59;5011380;28;96804;-74
2023/09/08 06:27:49;;;;;;;17.13;15.35;;;;;;;25.80;46.41;100911.56;5011790;28;97569;-74
2023/09/08 06:30:16;;;;;;;13.07;10.02;;;;;;;25.46;46.28;100915.41;5012008;28;100406;-74
2023/09/08 06:32:42;;;;;;;18.77;10.75;;;;;;;25.78;46.05;100922.47;5011705;28;99854;-74
2023/09/08 06:35:08;;;;;;;16.52;9.43;;;;;;;25.89;45.50;100918.84;5010314;28;96906;-74
2023/09/08 06:37:38;;;;;;;20.48;10.65;;;;;;;29.25;39.72;100906.28;5005435;28;97421;-74
2023/09/08 06:40:05;;;;;;;16.73;10.20;;;;;;;28.94;39.90;100915.81;5011094;28;100915;-74
2023/09/08 06:42:32;;;;;;;15.38;10.40;;;;;;;31.34;36.31;100910.81;5006205;28;99704;-74
2023/09/08 06:45:07;;;;;;;16.27;11.43;;;;;;;31.44;35.17;100914.19;5011622;28;96944;-72
2023/09/08 06:47:33;;;;;;;15.60;11.20;;;;;;;32.29;34.17;100912.63;5011706;28;97183;-72
2023/09/08 06:49:58;;;;;;;16.58;13.55;;;;;;;33.54;32.06;100911.25;5010441;28;98820;-72
2023/09/08 06:52:24;;;;;;;21.13;14.70;;;;;;;33.17;32.96;100912.13;5016085;28;98266;-72
2023/09/08 06:54:50;;;;;;;18.88;11.63;;;;;;;34.34;31.59;100914.94;5017779;28;97396;-72
2023/09/08 06:57:18;;;;;;;16.58;9.60;;;;;;;33.22;32.41;100909.72;5011434;28;97238;-73
2023/09/08 06:59:44;;;;;;;16.35;9.57;;;;;;;33.06;33.32;100918.03;5005895;28;98690;-78
2023/09/08 07:02:09;;;;;;;10.70;9.15;;;;;;;34.47;31.45;100912.38;5013375;28;97784;-78
2023/09/08 07:04:35;;;;;;;16.98;9.23;;;;;;;31.85;34.30;100924.03;5006120;28;96898;-77
2023/09/08 07:07:06;;;;;;;15.65;9.93;;;;;;;33.09;33.04;100915.78;5013086;28;96979;-73
2023/09/08 07:09:37;;;;;;;11.95;9.65;;;;;;;34.40;31.00;100911.44;5009365;28;100607;-75
2023/09/08 07:12:06;;;;;;;;;;;;;;;35.32;30.31;100918.75;5010523;28;100496;-72
2023/09/08 07:14:32;;;;;;;15.52;10.68;;;;;;;35.31;30.10;100918.94;5009921;28;96957;-72
2023/09/08 07:16:58;;;;;;;16.40;10.77;;;;;;;34.93;29.47;100920.13;5007932;28;97258;-72
2023/09/08 07:19:25;;;;;;;15.00;11.13;;;;;;;35.14;29.71;100923.88;5006340;28;100543;-72
2023/09/08 07:21:51;;;;;;;14.63;10.02;;;;;;;35.60;29.52;100913.25;5022280;27;101560;-72
2023/09/08 07:24:17;;;;;;;18.92;11.20;;;;;;;34.66;30.74;100920.94;5008033;28;97143;-72
2023/09/08 07:26:42;;;;;;;16.73;10.40;;;;;;;37.11;28.01;100915.72;5009201;28;97381;-72
2023/09/08 07:29:08;;;;;;;19.90;11.52;;;;;;;34.72;30.61;100916.59;5007106;28;99868;-72
2023/09/08 07:31:34;;;;;;;14.18;9.43;;;;;;;37.13;28.33;100915.53;5008475;28;100517;-71
2023/09/08 07:33:59;;;;;;;16.00;10.55;;;;;;;38.14;27.25;100914.16;5009352;28;97266;-72
2023/09/08 07:36:26;;;;;;;18.08;9.68;;;;;;;39.06;25.57;100918.13;5007185;28;97589;-72
2023/09/08 07:38:52;;;;;;;15.23;10.30;;;;;;;38.47;26.41;100920.31;5005455;28;100972;-75
2023/09/08 07:41:18;;;;;;;14.57;10.05;;;;;;;39.54;25.28;100919.38;5005935;28;100001;-73
2023/09/08 07:43:45;;;;;;;13.25;9.93;;;;;;;39.23;24.95;100910.16;5008560;28;97921;-73
2023/09/08 07:46:12;;;;;;;15.52;9.93;;;;;;;38.88;25.87;100918.94;5008862;28;97759;-73
2023/09/08 07:48:38;;;;;;;10.65;9.55;;;;;;;38.55;25.93;100919.19;5009225;28;98768;-73
2023/09/08 07:51:03;;;;;;;18.20;10.80;;;;;;;38.27;25.99;100923.13;5001525;28;98308;-72
2023/09/08 07:53:29;;;;;;;12.10;9.65;;;;;;;39.37;25.10;100916.38;5001779;28;96837;-73
2023/09/08 07:55:54;;;;;;;13.95;10.27;;;;;;;40.32;24.01;100914.97;5010443;28;97915;-73
2023/09/08 07:58:22;;;;;;;14.80;10.52;;;;;;;40.70;23.70;100917.38;5011098;28;98624;-73
2023/09/08 08:00:47;;;;;;;15.55;11.15;;;;;;;39.35;24.84;100911.09;5009660;28;98761;-73
2023/09/08 08:03:13;;;;;;;16.35;10.75;;;;;;;40.79;23.77;100904.94;5011637;28;96859;-73
2023/09/08 08:05:38;;;;;;;17.30;11.32;;;;;;;40.81;23.65;100918.47;5014390;28;96844;-73
2023/09/08 08:08:04;;;;;;;11.88;10.30;;;;;;;41.91;22.86;100900.28;5010532;28;97736;-73
2023/09/08 08:10:30;;;;;;;13.65;10.05;;;;;;;42.16;22.93;100910.97;5011676;28;98420;-73
2023/09/08 08:12:55;;;;;;;13.10;11.68;;;;;;;40.88;23.07;100911.78;5011752;28;96913;-73
2023/09/08 08:15:22;;;;;;;12.20;10.65;;;;;;;42.05;22.39;100902.50;5010703;28;97508;-73
2023/09/08 08:17:47;;;;;;;13.35;10.82;;;;;;;40.66;23.60;100905.16;5017470;27;98635;-72
2023/09/08 08:20:17;;;;;;;15.95;11.60;;;;;;;40.59;23.79;100908.00;5018716;28;98587;-73
2023/09/08 08:22:46;;;;;;;11.18;9.98;;;;;;;43.08;21.82;100902.31;5012441;28;97029;-76
2023/09/08 08:25:12;;;;;;;;;;;;;;;43.23;21.46;100898.13;4999078;28;96941;-76
2023/09/08 08:27:39;;;;;;;11.93;10.73;;;;;;;43.12;21.65;100895.19;5013030;28;98695;-76
2023/09/08 08:30:05;;;;;;;10.88;9.70;;;;;;;43.35;21.45;100896.94;5007032;28;98006;-77
2023/09/08 08:32:31;;;;;;;11.73;10.07;;;;;;;44.18;20.88;100901.50;5007491;28;97448;-77
2023/09/08 08:34:56;;;;;;;11.55;10.07;;;;;;;44.70;20.25;100893.38;5009988;28;97338;-77
2023/09/08 08:37:22;;;;;;;13.70;10.68;;;;;;;44.61;20.66;100896.91;5005127;28;98698;-77
2023/09/08 08:39:49;;;;;;;15.82;10.75;;;;;;;45.27;19.61;100896.56;5002714;28;97726;-77
2023/09/08 08:42:15;;;;;;;17.75;16.05;;;;;;;44.73;20.35;100892.06;5002368;28;97245;-76
2023/09/08 08:44:41;;;;;;;10.35;8.05;;;;;;;44.15;20.70;100890.97;5011263;28;97200;-76
2023/09/08 08:47:07;;;;;;;10.68;8.80;;;;;;;44.63;20.09;100895.56;5009430;28;98792;-77
2023/09/08 08:49:34;;;;;;;13.35;11.80;;;;;;;45.73;19.52;100883.75;5007993;28;98625;-76
2023/09/08 08:52:03;;;;;;;10.68;9.05;;;;;;;45.75;19.50;100886.22;5002405;28;96969;-77
2023/09/08 08:54:29;;;;;;;14.80;9.68;;;;;;;44.28;20.07;100882.25;5018701;28;96938;-77
2023/09/08 08:56:55;;;;;;;10.40;8.68;;;;;;;45.78;19.14;100886.50;5009610;28;99008;-77
2023/09/08 08:59:21;;;;;;;9.90;8.10;;;;;;;50.31;16.46;100886.94;5017053;28;98565;-76
2023/09/08 09:01:48;;;;;;;11.23;9.40;;;;;;;54.86;13.40;100877.69;5005164;28;96956;-76
2023/09/08 09:04:14;;;;;;;18.50;8.98;;;;;;;55.76;11.78;100865.22;5014455;28;96982;-75
2023/09/08 09:06:39;;;;;;;10.68;9.05;;;;;;;57.18;11.77;100865.78;5007947;28;98586;-74
2023/09/08 09:09:05;;;;;;;40.15;35.92;;;;;;;58.62;10.74;100856.56;5008358;28;98535;-74
2023/09/08 09:11:31;;;;;;;24.42;22.65;;;;;;;59.96;10.63;100856.38;5009388;28;97281;-75
2023/09/08 09:13:58;;;;;;;35.53;32.97;;;;;;;59.65;9.38;100851.72;5009394;28;97380;-74
2023/09/08 09:16:23;;;;;;;27.55;25.65;;;;;;;57.31;11.05;100847.66;5007738;28;99227;-75
2023/09/08 09:18:56;;;;;;;29.90;27.80;;;;;;;54.76;12.49;100853.63;5009622;28;98314;-75
2023/09/08 09:21:22;;;;;;;27.88;25.67;;;;;;;56.13;11.81;100846.50;5009376;28;97309;-75
2023/09/08 09:23:48;;;;;;;27.85;25.67;;;;;;;56.68;11.78;100842.41;5004460;28;96947;-75
2023/09/08 09:26:24;;;;;;;26.25;24.27;;;;;;;55.49;12.24;100850.53;5009974;28;98748;-75
2023/09/08 09:28:51;;;;;;;27.77;25.60;;;;;;;54.57;12.92;100833.50;5010691;28;98450;-75
2023/09/08 09:31:18;;;;;;;28.27;26.00;;;;;;;56.66;11.94;100835.47;5010340;28;96869;-74
2023/09/08 09:33:43;;;;;;;27.08;25.17;;;;;;;55.90;11.51;100832.00;5009101;28;97117;-75
2023/09/08 09:36:09;;;;;;;27.73;25.45;;;;;;;54.73;12.24;100823.38;5011006;28;98638;-75
2023/09/08 09:38:35;;;;;;;27.42;25.23;;;;;;;55.86;11.95;100831.03;5007309;28;98232;-71
2023/09/08 09:41:00;;;;;;;26.58;24.52;;;;;;;56.00;12.40;100816.66;5010426;28;96771;-80
2023/09/08 09:43:27;;;;;;;25.35;23.65;;;;;;;53.71;13.39;100818.50;5009994;28;97501;-80
2023/09/08 09:45:53;;;;;;;24.55;22.55;;;;;;;51.47;14.79;100815.09;5013433;28;99533;-80
2023/09/08 09:48:20;;;;;;;25.55;23.55;;;;;;;48.93;16.05;100822.72;5004525;28;98506;-80
2023/09/08 09:50:46;;;;;;;;;;;;;;;45.19;18.71;100828.66;5007609;28;96770;-80
2023/09/08 09:53:13;;;;;;;12.70;6.10;;;;;;;41.81;21.72;100835.59;5013917;28;97367;-79
2023/09/08 09:55:40;;;;;;;9.30;6.33;;;;;;;38.65;25.04;100830.94;5011683;28;98755;-80
2023/09/08 09:58:06;;;;;;;10.82;6.68;;;;;;;35.81;28.63;100830.41;5014148;28;98799;-79
2023/09/08 10:00:33;;;;;;;9.18;6.00;;;;;;;35.52;29.51;100827.94;5013463;28;97151;-79
2023/09/08 10:02:59;;;;;;;9.52;7.05;;;;;;;34.61;29.94;100828.00;5014304;28;96842;-79
2023/09/08 10:05:25;;;;;;;11.07;5.80;;;;;;;34.21;30.52;100828.50;5012312;28;99232;-79
2023/09/08 10:07:51;;;;;;;10.43;6.55;;;;;;;33.96;31.36;100824.44;5014154;28;98399;-79
2023/09/08 10:10:17;;;;;;;7.78;6.45;;;;;;;32.69;32.89;100821.84;5014305;28;96849;-78
2023/09/08 10:12:45;;;;;;;8.38;6.82;;;;;;;32.90;32.82;100818.38;5014141;28;96940;-79
2023/09/08 10:15:11;;;;;;;39.03;35.95;;;;;;;32.52;33.23;100809.44;5013343;28;98832;-78
2023/09/08 10:17:37;;;;;;;14.15;13.05;;;;;;;32.07;33.58;100831.00;5013748;28;98322;-79
2023/09/08 10:20:10;;;;;;;15.18;13.88;;;;;;;31.92;33.69;100825.50;5000140;28;98123;-78
2023/09/08 10:22:47;;;;;;;39.90;36.97;;;;;;;32.19;33.17;100825.97;5012715;28;97061;-79
2023/09/08 10:25:12;;;;;;;15.32;13.48;;;;;;;32.01;33.56;100829.84;5013734;28;98685;-78
2023/09/08 10:27:38;;;;;;;7.80;6.53;;;;;;;31.70;34.22;100829.81;5012095;28;98363;-78
2023/09/08 10:30:06;;;;;;;8.77;6.65;;;;;;;32.00;34.12;100825.44;5012603;28;96766;-78
2023/09/08 10:32:33;;;;;;;42.40;19.42;;;;;;;30.89;35.44;100820.97;5014152;28;96984;-79
2023/09/08 10:35:00;;;;;;;29.23;26.63;;;;;;;30.60;35.38;100818.78;5012138;28;98815;-80
2023/09/08 10:37:29;;;;;;;7.53;6.25;;;;;;;30.69;35.07;100822.31;5021048;28;98428;-80
2023/09/08 10:39:55;;;;;;;7.53;6.32;;;;;;;30.87;35.25;100820.28;5012121;28;96783;-80
2023/09/08 10:42:27;;;;;;;9.15;6.13;;;;;;;30.39;36.17;100813.00;5013750;28;97413;-80
2023/09/08 10:44:57;;;;;;;8.75;6.10;;;;;;;30.68;36.69;100823.31;5013403;28;99973;-80
2023/09/08 10:47:54;;;;;;;10.45;6.53;;;;;;;30.35;35.60;100820.63;5013044;28;98626;-80
2023/09/08 10:50:26;;;;;;;8.20;5.65;;;;;;;30.55;35.68;100812.16;5005180;28;97004;-81
2023/09/08 10:53:12;;;;;;;9.85;6.20;;;;;;;30.60;35.54;100815.19;5013433;28;96817;-81
2023/09/08 10:55:47;;;;;;;7.03;5.43;;;;;;;30.48;36.42;100806.56;5012610;28;98988;-81
2023/09/08 10:58:20;;;;;;;11.63;4.93;;;;;;;29.95;35.68;100811.41;5011661;28;99754;-80
2023/09/08 11:00:48;;;;;;;12.20;6.00;;;;;;;29.87;36.50;100799.72;5011146;28;97006;-80
2023/09/08 11:03:14;;;;;;;7.95;5.43;;;;;;;29.90;36.31;100800.25;5013016;28;96912;-80
2023/09/08 11:05:41;;;;;;;10.05;5.50;;;;;;;29.71;35.52;100803.25;5012506;28;98950;-80
2023/09/08 11:08:07;;;;;;;10.00;5.60;;;;;;;29.80;35.83;100804.13;5012872;28;98749;-80
2023/09/08 11:10:32;;;;;;;12.32;6.03;;;;;;;29.83;35.33;100803.78;5013560;28;96809;-81
2023/09/08 11:12:59;;;;;;;11.48;6.60;;;;;;;29.72;36.21;100802.25;5011747;28;97014;-81